Flight Number: EUR2079 Duration: 2:30
Departure: Munich Int'l (EDDM) at 07:15 Distance: 1053 Nm
Arrival: Gibraltar Airport (LXGB) at 09:45 Equipment: MD-81

Weather Information
Munchen, Germany (EDDM) 48-21N 011-47E May 22, 2018 - 03:20 PM EDT / 2018.05.22 1920 UTC
Wind: from the NNE (020 degrees) at 3 MPH (3 KT) (direction variable):0
Visibility: greater than 7 mile(s):0
Sky conditions: mostly cloudy Weather: light rain showers; Cumulonimbus clouds observed Temperature: 62 F (17 C) Dew Point: 53 F (12 C) Relative Humidity: 72% Pressure (altimeter): 29.91 in. Hg (1013 hPa)
ob: EDDM 221920Z 02003KT 290V050 9999 -SHRA FEW050CB SCT080 BKN120 17/12 Q1013 TEMPO SHRA cycle: 19
Sunrise: 03:28 Sunset: 18:51 (UTC)

Gibraltar, Gibraltar (LXGB) 36-09N 005-21W 0M May 22, 2018 - 02:50 PM EDT / 2018.05.22 1850 UTC
Wind: from the WNW (300 degrees) at 2 MPH (2 KT):0
Visibility: 5 mile(s):0
Sky conditions: mostly cloudy Weather: haze Temperature: 69 F (21 C) Dew Point: 57 F (14 C) Relative Humidity: 64% Pressure (altimeter): 29.91 in. Hg (1013 hPa)
ob: LXGB 221850Z 30002KT 9000 HZ BKN300 21/14 Q1013 NOSIG cycle: 19
Sunrise: 05:13 Sunset: 19:23 (UTC)

TAF: 404 Not Found

Not Found

The requested URL /data/forecasts/taf/stations/LXGB.TXT was not found on this server.



Previous Pireps for this route
Date Aircraft Flight time Fuel used Landing rate On time
2012-07-16DHC83.2446100Charter
2012-07-28MD-8103.0519700-701No
2012-08-30MD-8103.1422535-617No
2012-09-29MD-8103.3721352-284No
2013-06-29B7372.5125000Charter
2013-06-30B7372.53155100Charter
2013-11-30MD-8102.3916269-50No
2014-12-28B73702.4616535-414Charter
2015-05-16B73703.1816085-444Charter
2015-09-09MD-8102.4817561-163Yes
2016-07-12MD-8103.0018336-116Yes
2016-09-30MD-8102.3715544-159No
(pireps marked green are flown by you)

Route map